createdAt,value
2019-05-07T00:00:22.081Z,7.63
2019-05-07T00:01:19.815Z,7.63
2019-05-07T00:02:07.181Z,7.83
2019-05-07T00:02:42.868Z,7.53
2019-05-07T00:03:18.459Z,7.30
2019-05-07T00:03:53.890Z,7.40
2019-05-07T00:04:29.654Z,7.23
2019-05-07T00:05:05.694Z,7.40
2019-05-07T00:05:42.795Z,7.40
2019-05-07T00:06:18.693Z,7.97
2019-05-07T00:06:54.156Z,7.30
2019-05-07T00:07:29.598Z,7.87
2019-05-07T00:08:05.734Z,7.97
2019-05-07T00:08:44.654Z,7.17
2019-05-07T00:09:18.302Z,7.83
2019-05-07T00:09:54.193Z,7.57
2019-05-07T00:10:29.933Z,7.50
2019-05-07T00:11:05.457Z,7.53
2019-05-07T00:11:42.605Z,7.40
2019-05-07T00:12:18.277Z,7.60
2019-05-07T00:12:53.784Z,7.50
2019-05-07T00:13:29.508Z,6.90
2019-05-07T00:14:05.561Z,7.67
2019-05-07T00:14:42.925Z,8.07
2019-05-07T00:15:18.522Z,7.83
2019-05-07T00:15:54.016Z,7.53
2019-05-07T00:16:29.467Z,7.17
2019-05-07T00:17:04.917Z,7.23
2019-05-07T00:17:40.366Z,7.03
2019-05-07T00:18:15.911Z,7.80
2019-05-07T00:18:52.570Z,7.90
2019-05-07T00:19:28.344Z,6.97
2019-05-07T00:20:03.807Z,8.73
2019-05-07T00:20:39.238Z,7.20
2019-05-07T00:21:15.245Z,6.57
2019-05-07T00:21:52.828Z,7.90
2019-05-07T00:22:29.341Z,7.53
2019-05-07T00:23:04.824Z,7.97
2019-05-07T00:23:40.385Z,7.53
2019-05-07T00:24:15.930Z,7.47
2019-05-07T00:24:52.192Z,7.53
2019-05-07T00:25:27.864Z,7.63
2019-05-07T00:26:03.873Z,7.17
2019-05-07T00:26:39.740Z,7.33
2019-05-07T00:27:15.815Z,7.43
2019-05-07T00:27:52.340Z,7.83
2019-05-07T00:28:28.420Z,8.17
2019-05-07T00:29:04.502Z,7.73
2019-05-07T00:29:39.967Z,8.57
2019-05-07T00:30:15.985Z,7.13
2019-05-07T00:30:52.122Z,8.33
2019-05-07T00:31:27.693Z,7.60
2019-05-07T00:32:03.157Z,7.30
2019-05-07T00:32:39.265Z,7.70
2019-05-07T00:33:15.520Z,8.30
2019-05-07T00:33:52.595Z,8.73
2019-05-07T00:34:34.267Z,8.47
2019-05-07T00:35:13.080Z,8.13
2019-05-07T00:36:13.016Z,7.90
2019-05-07T00:37:12.939Z,7.30
2019-05-07T00:37:52.451Z,7.70
2019-05-07T00:38:31.842Z,7.47
2019-05-07T00:39:23.931Z,7.47
2019-05-07T00:40:06.739Z,7.97
2019-05-07T00:41:02.825Z,7.90
2019-05-07T00:41:49.278Z,7.60
2019-05-07T00:42:42.771Z,8.40
2019-05-07T00:43:22.687Z,7.83
2019-05-07T00:43:58.807Z,7.43
2019-05-07T00:44:35.891Z,7.50
2019-05-07T00:45:23.771Z,8.13
2019-05-07T00:46:13.324Z,8.67
2019-05-07T00:46:48.878Z,7.93
2019-05-07T00:47:24.328Z,7.90
2019-05-07T00:47:59.754Z,7.57
2019-05-07T00:48:35.230Z,7.93
2019-05-07T00:49:12.667Z,8.40
2019-05-07T00:49:48.712Z,8.67
2019-05-07T00:50:28.850Z,8.77
2019-05-07T00:51:22.606Z,8.03
2019-05-07T00:51:58.169Z,8.43
2019-05-07T00:52:33.708Z,8.20
2019-05-07T00:53:09.148Z,8.47
2019-05-07T00:53:44.708Z,8.50
2019-05-07T00:54:20.221Z,7.37
2019-05-07T00:54:56.033Z,8.20
2019-05-07T00:55:32.565Z,8.47
2019-05-07T00:56:08.114Z,8.10
2019-05-07T00:56:44.031Z,8.03
2019-05-07T00:57:19.671Z,7.97
2019-05-07T00:57:55.119Z,8.33
2019-05-07T00:58:32.119Z,8.53
2019-05-07T00:59:08.246Z,7.90
2019-05-07T00:59:43.721Z,8.87
2019-05-07T01:00:19.357Z,9.00
2019-05-07T01:00:55.430Z,8.57
2019-05-07T01:01:32.385Z,8.63
2019-05-07T01:02:07.951Z,8.30
2019-05-07T01:02:43.479Z,8.30
2019-05-07T01:03:19.015Z,9.03
2019-05-07T01:03:54.595Z,8.10
2019-05-07T01:04:30.464Z,8.30
2019-05-07T01:05:06.147Z,8.17
2019-05-07T01:05:43.180Z,8.23
2019-05-07T01:06:19.174Z,9.00
2019-05-07T01:06:54.625Z,8.47
2019-05-07T01:07:32.329Z,8.37
2019-05-07T01:08:07.936Z,9.37
2019-05-07T01:08:43.397Z,8.60
2019-05-07T01:09:19.222Z,8.83
2019-05-07T01:09:54.753Z,8.00
2019-05-07T01:10:32.823Z,8.27
2019-05-07T01:11:07.736Z,8.60
2019-05-07T01:11:43.331Z,8.07
2019-05-07T01:12:19.181Z,7.77
2019-05-07T01:12:54.622Z,8.43
2019-05-07T01:13:32.223Z,7.70
2019-05-07T01:14:07.389Z,8.20
2019-05-07T01:14:42.967Z,8.00
2019-05-07T01:15:28.752Z,8.00
2019-05-07T01:15:55.665Z,7.93
2019-05-07T01:16:32.982Z,7.83
2019-05-07T01:17:08.331Z,8.70
2019-05-07T01:17:43.865Z,7.23
2019-05-07T01:18:19.471Z,8.33
2019-05-07T01:18:54.915Z,8.00
2019-05-07T01:19:32.887Z,8.07
2019-05-07T01:20:07.874Z,8.00
2019-05-07T01:20:44.196Z,7.80
2019-05-07T01:21:22.708Z,7.80
2019-05-07T01:21:57.832Z,7.60
2019-05-07T01:22:33.284Z,7.43
2019-05-07T01:23:08.745Z,7.83
2019-05-07T01:23:44.317Z,8.23
2019-05-07T01:24:20.105Z,8.20
2019-05-07T01:24:55.653Z,7.93
2019-05-07T01:25:32.878Z,7.33
2019-05-07T01:26:08.643Z,7.57
2019-05-07T01:26:44.198Z,7.70
2019-05-07T01:27:22.434Z,8.13
2019-05-07T01:27:58.256Z,7.50
2019-05-07T01:28:52.936Z,7.60
2019-05-07T01:29:28.383Z,7.30
2019-05-07T01:30:04.111Z,8.00
2019-05-07T01:30:39.595Z,8.23
2019-05-07T01:31:15.107Z,7.43
2019-05-07T01:31:56.550Z,7.43
2019-05-07T01:32:50.540Z,7.67
2019-05-07T01:33:52.872Z,6.90
2019-05-07T01:34:47.251Z,7.10
2019-05-07T01:35:45.203Z,6.97
2019-05-07T01:36:22.629Z,7.40
2019-05-07T01:36:59.325Z,8.00
2019-05-07T01:37:35.183Z,8.00
2019-05-07T01:38:12.315Z,7.23
2019-05-07T01:38:48.095Z,7.73
2019-05-07T01:39:23.586Z,7.33
2019-05-07T01:39:59.031Z,7.80
2019-05-07T01:40:35.039Z,7.60
2019-05-07T01:41:12.500Z,8.00
2019-05-07T01:41:47.918Z,8.30
2019-05-07T01:42:23.386Z,7.13
2019-05-07T01:42:58.910Z,8.13
2019-05-07T01:43:34.897Z,7.80
2019-05-07T01:44:12.710Z,8.40
2019-05-07T01:44:47.919Z,8.47
2019-05-07T01:45:24.855Z,8.33
2019-05-07T01:46:02.966Z,7.60
2019-05-07T01:46:37.941Z,7.87
2019-05-07T01:47:14.059Z,7.90
2019-05-07T01:47:49.734Z,8.33
2019-05-07T01:48:25.185Z,7.20
2019-05-07T01:49:02.936Z,7.70
2019-05-07T01:49:38.013Z,7.60
2019-05-07T01:50:14.283Z,7.60
2019-05-07T01:50:49.844Z,7.77
2019-05-07T01:51:25.338Z,8.03
2019-05-07T01:52:02.498Z,7.60
2019-05-07T01:52:38.055Z,7.77
2019-05-07T01:53:14.019Z,7.80
2019-05-07T01:53:49.562Z,7.53
2019-05-07T01:54:25.132Z,8.63
2019-05-07T01:55:03.007Z,9.00
2019-05-07T01:55:38.419Z,7.83
2019-05-07T01:56:14.227Z,8.87
2019-05-07T01:56:51.655Z,8.50
2019-05-07T01:57:27.323Z,8.80
2019-05-07T01:58:04.857Z,8.23
2019-05-07T01:58:42.332Z,8.83
2019-05-07T01:59:17.568Z,8.20
2019-05-07T01:59:53.410Z,9.00
2019-05-07T02:00:28.960Z,8.00
2019-05-07T02:01:04.427Z,8.87
2019-05-07T02:01:42.725Z,8.63
2019-05-07T02:02:23.467Z,8.47
2019-05-07T02:03:05.729Z,8.77
2019-05-07T02:03:53.866Z,8.13
2019-05-07T02:04:48.294Z,9.20
2019-05-07T02:05:42.856Z,9.00
2019-05-07T02:06:24.356Z,8.60
2019-05-07T02:07:15.692Z,8.70
2019-05-07T02:07:55.225Z,9.03
2019-05-07T02:08:44.933Z,8.80
2019-05-07T02:09:29.632Z,8.97
2019-05-07T02:10:11.953Z,8.30
2019-05-07T02:11:06.380Z,9.20
2019-05-07T02:11:44.052Z,8.70
2019-05-07T02:12:38.330Z,9.03
2019-05-07T02:13:14.267Z,9.27
2019-05-07T02:13:49.748Z,8.97
2019-05-07T02:14:25.532Z,8.33
2019-05-07T02:15:02.711Z,8.47
2019-05-07T02:15:38.385Z,8.40
2019-05-07T02:16:14.512Z,8.73
2019-05-07T02:16:50.020Z,9.07
2019-05-07T02:17:25.475Z,9.20
2019-05-07T02:18:02.036Z,8.60
2019-05-07T02:18:37.643Z,8.57
2019-05-07T02:19:14.429Z,8.03
2019-05-07T02:19:50.315Z,9.20
2019-05-07T02:20:25.788Z,8.50
2019-05-07T02:21:03.211Z,8.53
2019-05-07T02:21:38.767Z,8.17
2019-05-07T02:22:14.817Z,8.43
2019-05-07T02:22:50.351Z,8.80
2019-05-07T02:23:25.844Z,8.40
2019-05-07T02:24:03.325Z,8.20
2019-05-07T02:24:38.930Z,8.33
2019-05-07T02:25:14.878Z,8.70
2019-05-07T02:25:52.677Z,8.27
2019-05-07T02:26:28.187Z,8.30
2019-05-07T02:27:03.669Z,8.17
2019-05-07T02:27:39.143Z,8.90
2019-05-07T02:28:14.712Z,8.63
2019-05-07T02:28:51.862Z,8.23
2019-05-07T02:29:27.443Z,8.20
2019-05-07T02:30:04.568Z,8.67
2019-05-07T02:30:40.201Z,8.33
2019-05-07T02:31:15.729Z,8.13
2019-05-07T02:31:53.063Z,8.30
2019-05-07T02:32:28.854Z,8.00
2019-05-07T02:33:04.460Z,8.30
2019-05-07T02:33:42.657Z,8.67
2019-05-07T02:34:17.145Z,9.37
2019-05-07T02:34:54.499Z,7.67
2019-05-07T02:35:33.034Z,8.40
2019-05-07T02:36:06.990Z,7.87
2019-05-07T02:36:43.577Z,7.97
2019-05-07T02:37:29.439Z,8.70
2019-05-07T02:38:08.951Z,8.10
2019-05-07T02:39:12.628Z,8.43
2019-05-07T02:39:53.915Z,7.90
2019-05-07T02:40:43.046Z,8.00
2019-05-07T02:41:23.953Z,7.90
2019-05-07T02:41:59.786Z,8.37
2019-05-07T02:42:35.274Z,8.13
2019-05-07T02:43:14.111Z,8.30
2019-05-07T02:43:48.688Z,7.47
2019-05-07T02:44:24.764Z,8.00
2019-05-07T02:45:19.467Z,8.30
2019-05-07T02:46:26.361Z,8.00
2019-05-07T02:47:03.742Z,8.43
2019-05-07T02:47:37.793Z,8.13
2019-05-07T02:48:14.396Z,7.70
2019-05-07T02:49:03.136Z,7.67
2019-05-07T02:49:46.423Z,7.77
2019-05-07T02:50:26.854Z,7.70
2019-05-07T02:51:07.366Z,7.67
2019-05-07T02:51:49.608Z,7.47
2019-05-07T02:52:44.258Z,8.37
2019-05-07T02:53:33.796Z,8.10
2019-05-07T02:54:32.868Z,7.67
2019-05-07T02:55:14.367Z,7.80
2019-05-07T02:55:52.990Z,8.07
2019-05-07T02:56:28.477Z,8.20
2019-05-07T02:57:03.951Z,7.67
2019-05-07T02:57:39.411Z,7.97
2019-05-07T02:58:15.356Z,7.90
2019-05-07T02:58:52.809Z,7.30
2019-05-07T02:59:28.762Z,7.73
2019-05-07T03:00:05.592Z,7.40
2019-05-07T03:00:43.373Z,8.07
2019-05-07T03:01:22.451Z,7.90
2019-05-07T03:01:56.711Z,8.10
2019-05-07T03:02:33.271Z,7.47
2019-05-07T03:03:08.805Z,7.77
2019-05-07T03:03:45.078Z,7.60
2019-05-07T03:04:20.664Z,7.60
2019-05-07T03:04:56.477Z,8.37
2019-05-07T03:05:35.005Z,8.07
2019-05-07T03:06:09.842Z,8.00
2019-05-07T03:06:45.431Z,7.90
2019-05-07T03:07:23.898Z,7.27
2019-05-07T03:07:58.077Z,7.63
2019-05-07T03:08:33.545Z,8.33
2019-05-07T03:09:09.017Z,7.90
2019-05-07T03:09:44.876Z,8.33
2019-05-07T03:10:23.865Z,8.07
2019-05-07T03:10:58.333Z,8.27
2019-05-07T03:11:34.225Z,8.10
2019-05-07T03:12:12.966Z,8.27
2019-05-07T03:12:47.378Z,8.17
2019-05-07T03:13:23.857Z,7.80
2019-05-07T03:13:59.483Z,9.03
2019-05-07T03:14:34.932Z,8.40
2019-05-07T03:15:12.941Z,8.73
2019-05-07T03:15:47.781Z,9.07
2019-05-07T03:16:38.680Z,8.20
2019-05-07T03:17:03.077Z,8.57
2019-05-07T03:17:38.580Z,8.60
2019-05-07T03:18:18.621Z,8.77
2019-05-07T03:18:53.278Z,8.53
2019-05-07T03:19:29.302Z,8.33
2019-05-07T03:20:07.851Z,8.70
2019-05-07T03:20:57.248Z,8.20
2019-05-07T03:21:53.407Z,8.77
2019-05-07T03:22:28.169Z,9.10
2019-05-07T03:23:04.570Z,8.63
2019-05-07T03:24:03.411Z,8.83
2019-05-07T03:24:53.606Z,8.93
2019-05-07T03:25:33.987Z,8.13
2019-05-07T03:26:16.804Z,8.47
2019-05-07T03:26:53.589Z,8.43
2019-05-07T03:27:29.279Z,8.23
2019-05-07T03:28:04.746Z,8.50
2019-05-07T03:29:03.648Z,9.00
2019-05-07T03:29:38.742Z,8.77
2019-05-07T03:30:35.954Z,9.33
2019-05-07T03:31:17.252Z,9.03
2019-05-07T03:31:59.005Z,9.10
2019-05-07T03:32:46.902Z,8.93
2019-05-07T03:33:37.324Z,8.70
2019-05-07T03:34:36.914Z,9.13
2019-05-07T03:35:20.558Z,8.37
2019-05-07T03:35:57.285Z,9.17
2019-05-07T03:36:46.588Z,8.60
2019-05-07T03:37:23.410Z,9.67
2019-05-07T03:37:58.777Z,8.77
2019-05-07T03:38:34.226Z,8.77
2019-05-07T03:39:09.687Z,9.30
2019-05-07T03:39:46.319Z,10.00
2019-05-07T03:40:23.109Z,10.13
2019-05-07T03:40:59.019Z,9.40
2019-05-07T03:41:34.532Z,9.23
2019-05-07T03:42:12.764Z,10.43
2019-05-07T03:42:47.143Z,9.50
2019-05-07T03:43:24.578Z,9.00
2019-05-07T03:44:03.730Z,10.33
2019-05-07T03:45:07.186Z,9.13
2019-05-07T03:46:17.544Z,9.83
2019-05-07T03:47:01.597Z,10.03
2019-05-07T03:47:34.289Z,10.37
2019-05-07T03:48:17.879Z,9.90
2019-05-07T03:48:53.406Z,10.17
2019-05-07T03:49:33.877Z,10.00
2019-05-07T03:50:10.143Z,9.07
2019-05-07T03:50:45.654Z,10.07
2019-05-07T03:51:23.760Z,9.27
2019-05-07T03:51:58.351Z,9.77
2019-05-07T03:52:33.832Z,9.27
2019-05-07T03:53:09.245Z,9.97
2019-05-07T03:53:44.763Z,9.97
2019-05-07T03:54:20.327Z,9.83
2019-05-07T03:54:56.117Z,10.23
2019-05-07T03:55:33.243Z,9.63
2019-05-07T03:56:09.173Z,9.00
2019-05-07T03:56:44.712Z,10.03
2019-05-07T03:57:23.464Z,9.50
2019-05-07T03:57:57.434Z,9.70
2019-05-07T03:58:33.922Z,9.63
2019-05-07T03:59:12.868Z,9.47
2019-05-07T03:59:47.255Z,9.80
2019-05-07T04:00:23.857Z,9.07
2019-05-07T04:00:59.561Z,9.57
2019-05-07T04:01:34.979Z,9.80
2019-05-07T04:02:13.926Z,8.93
2019-05-07T04:02:48.068Z,9.50
2019-05-07T04:03:24.744Z,9.43
2019-05-07T04:04:03.575Z,9.73
2019-05-07T04:04:37.961Z,8.90
2019-05-07T04:05:14.445Z,9.77
2019-05-07T04:05:53.052Z,9.73
2019-05-07T04:06:27.658Z,9.43
2019-05-07T04:07:03.627Z,8.70
2019-05-07T04:07:39.650Z,8.97
2019-05-07T04:08:15.860Z,9.10
2019-05-07T04:08:53.170Z,10.03
2019-05-07T04:09:28.625Z,8.63
2019-05-07T04:10:04.986Z,9.43
2019-05-07T04:10:43.785Z,9.67
2019-05-07T04:11:17.645Z,9.87
2019-05-07T04:11:53.205Z,9.47
2019-05-07T04:12:29.054Z,9.80
2019-05-07T04:13:04.771Z,9.47
2019-05-07T04:13:40.263Z,10.07
2019-05-07T04:14:16.262Z,9.63
2019-05-07T04:14:53.443Z,9.73
2019-05-07T04:15:32.770Z,9.57
2019-05-07T04:16:06.920Z,10.57
2019-05-07T04:16:44.118Z,9.77
2019-05-07T04:17:23.269Z,10.10
2019-05-07T04:17:57.441Z,9.90
2019-05-07T04:18:33.314Z,9.90
2019-05-07T04:19:13.000Z,10.83
2019-05-07T04:19:46.929Z,10.00
2019-05-07T04:20:23.937Z,10.60
2019-05-07T04:20:59.694Z,10.40
2019-05-07T04:21:35.167Z,9.20
2019-05-07T04:22:13.126Z,9.53
2019-05-07T04:22:48.263Z,10.53
2019-05-07T04:23:23.828Z,10.10
2019-05-07T04:24:15.162Z,10.63
2019-05-07T04:24:59.077Z,10.07
2019-05-07T04:25:59.984Z,10.67
2019-05-07T04:26:42.932Z,10.10
2019-05-07T04:27:26.188Z,9.40
2019-05-07T04:28:09.419Z,10.00
2019-05-07T04:28:54.704Z,9.93
2019-05-07T04:29:30.177Z,9.30
2019-05-07T04:30:06.156Z,9.23
2019-05-07T04:30:43.813Z,9.07
2019-05-07T04:31:19.018Z,9.73
2019-05-07T04:31:55.359Z,9.47
2019-05-07T04:32:37.626Z,9.57
2019-05-07T04:33:14.557Z,9.40
2019-05-07T04:33:53.154Z,9.17
2019-05-07T04:34:45.572Z,10.00
2019-05-07T04:35:27.054Z,9.13
2019-05-07T04:36:08.371Z,9.60
2019-05-07T04:36:46.638Z,9.70
2019-05-07T04:37:24.017Z,10.17
2019-05-07T04:38:02.205Z,10.07
2019-05-07T04:38:37.217Z,9.43
2019-05-07T04:39:13.470Z,9.43
2019-05-07T04:39:55.441Z,9.43
2019-05-07T04:40:33.820Z,8.93
2019-05-07T04:41:08.426Z,9.50
2019-05-07T04:41:44.742Z,8.93
2019-05-07T04:42:24.049Z,9.03
2019-05-07T04:42:57.958Z,8.77
2019-05-07T04:43:33.814Z,8.70
2019-05-07T04:44:09.433Z,8.80
2019-05-07T04:44:45.421Z,10.03
2019-05-07T04:45:23.177Z,9.07
2019-05-07T04:45:58.701Z,8.77
2019-05-07T04:46:34.153Z,9.37
2019-05-07T04:47:13.113Z,9.50
2019-05-07T04:47:48.138Z,9.47
2019-05-07T04:48:24.213Z,8.80
2019-05-07T04:48:59.658Z,9.07
2019-05-07T04:49:35.378Z,9.73
2019-05-07T04:50:13.904Z,9.50
2019-05-07T04:50:54.223Z,8.97
2019-05-07T04:51:39.119Z,9.53
2019-05-07T04:52:23.666Z,8.53
2019-05-07T04:52:57.885Z,8.67
2019-05-07T04:53:33.659Z,9.80
2019-05-07T04:54:09.460Z,8.73
2019-05-07T04:54:45.086Z,9.17
2019-05-07T04:55:22.963Z,9.27
2019-05-07T04:55:58.120Z,8.37
2019-05-07T04:56:33.899Z,9.27
2019-05-07T04:57:25.595Z,8.90
2019-05-07T04:58:03.404Z,8.57
2019-05-07T04:58:38.303Z,8.77
2019-05-07T04:59:14.399Z,8.93
2019-05-07T04:59:49.911Z,8.93
2019-05-07T05:00:25.413Z,9.17
2019-05-07T05:01:03.274Z,8.93
2019-05-07T05:01:43.599Z,9.33
2019-05-07T05:02:23.124Z,8.80
2019-05-07T05:03:26.640Z,8.70
2019-05-07T05:04:21.156Z,9.43
2019-05-07T05:04:39.223Z,9.90
2019-05-07T05:05:15.722Z,8.60
2019-05-07T05:05:53.234Z,9.43
2019-05-07T05:06:29.340Z,8.93
2019-05-07T05:07:04.801Z,8.57
2019-05-07T05:07:42.870Z,9.13
2019-05-07T05:08:18.274Z,8.70
2019-05-07T05:08:56.244Z,9.73
2019-05-07T05:09:32.885Z,9.53
2019-05-07T05:10:08.947Z,9.37
2019-05-07T05:10:44.704Z,8.80
2019-05-07T05:11:23.042Z,9.40
2019-05-07T05:11:57.931Z,9.17
2019-05-07T05:12:33.379Z,9.40
2019-05-07T05:13:08.861Z,9.97
2019-05-07T05:13:45.061Z,10.00
2019-05-07T05:14:22.700Z,10.17
2019-05-07T05:14:57.929Z,9.63
2019-05-07T05:15:33.800Z,9.50
2019-05-07T05:16:25.627Z,8.90
2019-05-07T05:17:02.070Z,8.93
2019-05-07T05:17:48.019Z,9.53
2019-05-07T05:18:15.417Z,10.43
2019-05-07T05:18:51.714Z,9.43
2019-05-07T05:19:27.683Z,9.83
2019-05-07T05:20:03.746Z,10.20
2019-05-07T05:20:56.805Z,9.00
2019-05-07T05:21:44.495Z,10.00
2019-05-07T05:22:39.416Z,10.10
2019-05-07T05:23:46.429Z,10.43
2019-05-07T05:24:27.149Z,9.37
2019-05-07T05:25:17.969Z,10.10
2019-05-07T05:25:53.858Z,10.07
2019-05-07T05:26:29.307Z,9.47
2019-05-07T05:27:04.797Z,10.30
2019-05-07T05:27:42.842Z,9.53
2019-05-07T05:28:17.893Z,10.67
2019-05-07T05:28:53.385Z,10.00
2019-05-07T05:29:28.862Z,9.77
2019-05-07T05:30:04.988Z,9.93
2019-05-07T05:30:43.121Z,9.80
2019-05-07T05:31:19.001Z,10.67
2019-05-07T05:31:54.454Z,10.00
2019-05-07T05:32:32.432Z,10.13
2019-05-07T05:33:07.679Z,9.67
2019-05-07T05:33:43.692Z,9.77
2019-05-07T05:34:22.100Z,10.27
2019-05-07T05:34:58.673Z,10.60
2019-05-07T05:35:34.489Z,11.00
2019-05-07T05:36:12.440Z,10.77
2019-05-07T05:36:47.295Z,10.50
2019-05-07T05:37:23.313Z,9.93
2019-05-07T05:37:59.094Z,10.60
2019-05-07T05:38:34.534Z,10.37
2019-05-07T05:39:10.007Z,10.30
2019-05-07T05:39:46.576Z,10.97
2019-05-07T05:40:22.860Z,11.10
2019-05-07T05:40:58.653Z,10.43
2019-05-07T05:41:37.724Z,10.80
2019-05-07T05:42:36.526Z,10.33
2019-05-07T05:43:19.452Z,10.07
2019-05-07T05:44:07.622Z,11.07
2019-05-07T05:44:43.327Z,10.07
2019-05-07T05:45:35.889Z,10.40
2019-05-07T05:46:12.178Z,10.63
2019-05-07T05:46:47.932Z,10.13
2019-05-07T05:47:23.796Z,10.77
2019-05-07T05:48:04.548Z,11.23
2019-05-07T05:48:37.102Z,11.57
2019-05-07T05:49:13.669Z,10.10
2019-05-07T05:49:49.591Z,10.83
2019-05-07T05:50:26.937Z,10.70
2019-05-07T05:51:11.782Z,10.87
2019-05-07T05:51:59.323Z,10.33
2019-05-07T05:52:45.569Z,10.47
2019-05-07T05:53:43.502Z,10.73
2019-05-07T05:54:38.042Z,10.20
2019-05-07T05:55:16.951Z,10.70
2019-05-07T05:55:53.376Z,10.00
2019-05-07T05:56:37.664Z,11.00
2019-05-07T05:57:23.018Z,9.90
2019-05-07T05:58:12.761Z,10.60
2019-05-07T05:59:05.355Z,10.77
2019-05-07T06:00:05.732Z,10.40
2019-05-07T06:01:09.440Z,9.93
2019-05-07T06:01:58.256Z,10.37
2019-05-07T06:02:58.476Z,10.07
2019-05-07T06:03:49.398Z,10.60
2019-05-07T06:04:33.572Z,10.70
2019-05-07T06:05:34.321Z,10.80
2019-05-07T06:06:33.702Z,10.73
2019-05-07T06:07:15.330Z,11.13
2019-05-07T06:07:59.950Z,10.77
2019-05-07T06:08:43.616Z,10.43
2019-05-07T06:09:29.957Z,11.33
2019-05-07T06:10:17.529Z,10.80
2019-05-07T06:11:14.575Z,10.93
2019-05-07T06:12:12.796Z,11.07
2019-05-07T06:13:01.760Z,10.07
2019-05-07T06:13:52.649Z,10.57
2019-05-07T06:14:46.753Z,11.67
2019-05-07T06:15:44.302Z,11.13
2019-05-07T06:16:23.282Z,10.80
2019-05-07T06:17:16.495Z,10.70
2019-05-07T06:18:29.468Z,10.80
2019-05-07T06:19:33.335Z,10.30
2019-05-07T06:20:37.236Z,11.27
2019-05-07T06:21:24.098Z,10.60
2019-05-07T06:22:12.822Z,11.27
2019-05-07T06:23:07.365Z,10.50
2019-05-07T06:23:46.682Z,11.43
2019-05-07T06:24:32.813Z,10.00
2019-05-07T06:25:15.675Z,10.80
2019-05-07T06:25:52.336Z,11.73
2019-05-07T06:26:28.187Z,11.20
2019-05-07T06:27:03.775Z,12.37
2019-05-07T06:27:39.253Z,11.30
2019-05-07T06:28:14.819Z,11.10
2019-05-07T06:28:51.909Z,11.00
2019-05-07T06:29:27.487Z,12.20
2019-05-07T06:30:05.026Z,11.17
2019-05-07T06:30:41.846Z,11.87
2019-05-07T06:31:17.567Z,12.47
2019-05-07T06:32:03.260Z,11.90
2019-05-07T06:32:39.084Z,11.47
2019-05-07T06:33:14.709Z,11.20
2019-05-07T06:33:52.275Z,11.50
2019-05-07T06:34:28.131Z,11.43
2019-05-07T06:35:03.585Z,11.67
2019-05-07T06:35:39.381Z,11.30
2019-05-07T06:36:15.123Z,11.60
2019-05-07T06:36:52.676Z,11.93
2019-05-07T06:37:28.314Z,12.13
2019-05-07T06:38:04.879Z,11.83
2019-05-07T06:38:49.599Z,11.43
2019-05-07T06:39:28.138Z,10.53
2019-05-07T06:40:29.323Z,11.90
2019-05-07T06:41:25.036Z,11.53
2019-05-07T06:42:22.251Z,12.07
2019-05-07T06:43:04.241Z,11.70
2019-05-07T06:43:44.367Z,10.43
2019-05-07T06:44:22.518Z,12.00
2019-05-07T06:45:05.499Z,11.23
2019-05-07T06:45:44.143Z,10.67
2019-05-07T06:46:19.649Z,11.40
2019-05-07T06:46:55.173Z,11.53
2019-05-07T06:47:31.901Z,11.27
2019-05-07T06:48:07.789Z,11.23
2019-05-07T06:48:46.119Z,11.57
2019-05-07T06:49:22.289Z,11.10
2019-05-07T06:49:58.338Z,10.60
2019-05-07T06:50:34.059Z,11.70
2019-05-07T06:51:09.542Z,11.30
2019-05-07T06:51:47.679Z,11.53
2019-05-07T06:52:22.522Z,11.60
2019-05-07T06:52:57.971Z,11.77
2019-05-07T06:53:33.854Z,12.00
2019-05-07T06:54:09.694Z,11.33
2019-05-07T06:54:45.309Z,12.53
2019-05-07T06:55:22.877Z,12.00
2019-05-07T06:56:00.068Z,10.73
2019-05-07T06:56:35.548Z,11.77
2019-05-07T06:57:13.048Z,13.70
2019-05-07T06:57:48.233Z,12.90
2019-05-07T06:58:25.619Z,10.40
2019-05-07T06:59:06.388Z,11.83
2019-05-07T06:59:45.952Z,16.93
2019-05-07T07:00:42.198Z,11.60
2019-05-07T07:01:35.929Z,23.93
2019-05-07T07:02:37.241Z,13.07
2019-05-07T07:03:27.805Z,10.30
2019-05-07T07:04:13.876Z,10.73
2019-05-07T07:04:56.903Z,11.80
2019-05-07T07:05:51.846Z,14.20
2019-05-07T07:06:32.079Z,11.93
2019-05-07T07:07:26.089Z,13.43
2019-05-07T07:07:56.724Z,12.97
2019-05-07T07:08:37.038Z,11.10
2019-05-07T07:09:19.651Z,11.23
2019-05-07T07:10:27.084Z,11.60
2019-05-07T07:11:22.434Z,11.97
2019-05-07T07:12:02.094Z,12.03
2019-05-07T07:12:37.272Z,12.10
2019-05-07T07:13:13.042Z,11.73
2019-05-07T07:13:48.584Z,10.67
2019-05-07T07:14:24.455Z,11.17
2019-05-07T07:15:02.568Z,11.57
2019-05-07T07:15:37.400Z,11.73
2019-05-07T07:16:13.471Z,11.47
2019-05-07T07:16:49.347Z,11.37
2019-05-07T07:17:25.050Z,11.60
2019-05-07T07:18:02.986Z,11.83
2019-05-07T07:18:51.363Z,11.60
2019-05-07T07:19:15.399Z,12.13
2019-05-07T07:19:52.333Z,11.33
2019-05-07T07:20:27.941Z,11.70
2019-05-07T07:21:04.411Z,11.40
2019-05-07T07:21:42.040Z,11.17
2019-05-07T07:22:17.828Z,11.80
2019-05-07T07:22:53.339Z,11.90
2019-05-07T07:23:28.805Z,10.40
2019-05-07T07:24:04.393Z,11.67
2019-05-07T07:24:42.280Z,12.17
2019-05-07T07:25:17.586Z,12.43
2019-05-07T07:25:53.048Z,11.90
2019-05-07T07:26:28.508Z,11.87
2019-05-07T07:27:04.002Z,11.77
2019-05-07T07:27:39.437Z,11.77
2019-05-07T07:28:15.369Z,11.90
2019-05-07T07:28:52.507Z,11.47
2019-05-07T07:29:32.469Z,11.80
2019-05-07T07:30:21.872Z,11.47
2019-05-07T07:31:13.965Z,12.37
2019-05-07T07:31:55.224Z,11.90
2019-05-07T07:32:36.489Z,10.93
2019-05-07T07:33:12.299Z,11.60
2019-05-07T07:33:48.207Z,11.00
2019-05-07T07:34:24.573Z,12.07
2019-05-07T07:35:02.409Z,12.33
2019-05-07T07:35:37.574Z,11.43
2019-05-07T07:36:13.080Z,12.53
2019-05-07T07:37:08.988Z,12.73
2019-05-07T07:37:43.007Z,11.27
2019-05-07T07:38:34.146Z,12.07
2019-05-07T07:39:09.842Z,11.03
2019-05-07T07:39:45.846Z,11.20
2019-05-07T07:40:36.616Z,12.30
2019-05-07T07:41:27.052Z,11.40
2019-05-07T07:42:04.169Z,11.90
2019-05-07T07:42:40.011Z,11.27
2019-05-07T07:43:15.577Z,12.07
2019-05-07T07:43:52.606Z,11.10
2019-05-07T07:44:28.177Z,11.87
2019-05-07T07:45:18.987Z,11.67
2019-05-07T07:45:54.435Z,11.43
2019-05-07T07:46:29.978Z,11.53
2019-05-07T07:47:05.555Z,10.80
2019-05-07T07:47:42.224Z,11.00
2019-05-07T07:48:18.523Z,11.93
2019-05-07T07:49:06.884Z,11.97
2019-05-07T07:49:32.917Z,11.67
2019-05-07T07:50:08.795Z,12.23
2019-05-07T07:50:45.117Z,12.43
2019-05-07T07:51:36.660Z,12.90
2019-05-07T07:51:57.835Z,13.20
2019-05-07T07:52:33.612Z,13.00
2019-05-07T07:53:09.061Z,12.53
2019-05-07T07:53:44.957Z,13.57
2019-05-07T07:54:22.653Z,13.03
2019-05-07T07:54:57.746Z,13.37
2019-05-07T07:55:42.606Z,12.50
2019-05-07T07:56:49.991Z,13.50
2019-05-07T07:57:36.244Z,13.10
2019-05-07T07:58:34.268Z,13.00
2019-05-07T07:59:22.159Z,13.15
2019-05-07T08:00:16.720Z,13.70
2019-05-07T08:01:02.820Z,12.87
2019-05-07T08:01:44.028Z,13.23
2019-05-07T08:02:38.770Z,13.05
2019-05-07T08:03:14.551Z,12.63
2019-05-07T08:03:52.103Z,13.13
2019-05-07T08:04:27.584Z,13.33
2019-05-07T08:05:03.084Z,12.73
2019-05-07T08:05:38.538Z,13.00
2019-05-07T08:06:14.004Z,12.80
2019-05-07T08:07:03.085Z,13.23
2019-05-07T08:07:39.017Z,13.50
2019-05-07T08:08:14.860Z,13.33
2019-05-07T08:08:52.885Z,13.77
2019-05-07T08:09:28.027Z,13.60
2019-05-07T08:10:03.685Z,14.03
2019-05-07T08:10:39.703Z,13.67
2019-05-07T08:11:15.270Z,14.00
2019-05-07T08:11:52.698Z,13.90
2019-05-07T08:12:28.384Z,14.07
2019-05-07T08:13:04.331Z,13.87
2019-05-07T08:13:42.456Z,13.70
2019-05-07T08:14:17.796Z,15.37
2019-05-07T08:14:53.753Z,14.07
2019-05-07T08:15:29.247Z,13.37
2019-05-07T08:16:04.846Z,13.17
2019-05-07T08:16:42.716Z,13.30
2019-05-07T08:17:17.968Z,13.77
2019-05-07T08:17:54.126Z,12.53
2019-05-07T08:18:29.707Z,13.23
2019-05-07T08:19:18.466Z,13.57
2019-05-07T08:19:43.045Z,13.30
2019-05-07T08:20:22.072Z,14.10
2019-05-07T08:20:57.507Z,13.37
2019-05-07T08:21:33.288Z,14.40
2019-05-07T08:22:08.886Z,14.50
2019-05-07T08:22:44.756Z,13.90
2019-05-07T08:23:22.499Z,14.13
2019-05-07T08:23:58.143Z,13.37
2019-05-07T08:24:33.588Z,13.07
2019-05-07T08:25:09.734Z,13.87
2019-05-07T08:25:48.488Z,14.03
2019-05-07T08:26:24.033Z,15.17
2019-05-07T08:27:02.148Z,13.33
2019-05-07T08:27:37.380Z,13.73
2019-05-07T08:28:12.964Z,13.43
2019-05-07T08:28:48.974Z,15.10
2019-05-07T08:29:25.213Z,14.10
2019-05-07T08:30:02.839Z,14.03
2019-05-07T08:30:37.877Z,12.87
2019-05-07T08:31:42.536Z,13.57
2019-05-07T08:32:43.524Z,12.43
2019-05-07T08:33:23.907Z,11.77
2019-05-07T08:34:08.740Z,12.03
2019-05-07T08:34:52.089Z,11.97
2019-05-07T08:35:41.909Z,11.63
2019-05-07T08:36:18.386Z,11.17
2019-05-07T08:36:54.301Z,11.43
2019-05-07T08:37:31.647Z,10.93
2019-05-07T08:38:06.924Z,11.30
2019-05-07T08:38:53.084Z,11.80